TimeCST,TemperatureF,Dew PointF,Humidity,Sea Level PressureIn,VisibilityMPH,Wind Direction,Wind SpeedMPH,Gust SpeedMPH,PrecipitationIn,Events,Conditions,WindDirDegrees,DateUTC
12:53 AM,28.0,25.0,88,30.26,7.0,WNW,4.6,-,N/A,,Mostly Cloudy,290,2013-03-01 06:53:00
1:53 AM,27.0,24.1,89,30.25,6.0,NW,4.6,-,N/A,,Mostly Cloudy,310,2013-03-01 07:53:00
2:07 AM,26.6,24.8,93,30.24,6.0,WNW,4.6,-,N/A,,Mostly Cloudy,300,2013-03-01 08:07:00
2:53 AM,26.1,23.0,88,30.25,6.0,WNW,6.9,-,N/A,,Scattered Clouds,290,2013-03-01 08:53:00
3:01 AM,26.6,24.8,93,30.23,6.0,WNW,5.8,-,N/A,,Mostly Cloudy,300,2013-03-01 09:01:00
3:18 AM,26.6,24.8,93,30.23,6.0,NW,5.8,-,N/A,,Scattered Clouds,310,2013-03-01 09:18:00
3:53 AM,26.1,24.1,92,30.25,6.0,WNW,4.6,-,N/A,,Clear,300,2013-03-01 09:53:00
4:53 AM,26.1,24.1,92,30.25,6.0,NNW,3.5,-,N/A,,Partly Cloudy,330,2013-03-01 10:53:00
5:13 AM,28.4,24.8,86,30.24,7.0,NW,5.8,-,N/A,,Mostly Cloudy,320,2013-03-01 11:13:00
5:53 AM,28.9,26.1,89,30.25,7.0,North,3.5,-,N/A,,Overcast,10,2013-03-01 11:53:00
6:53 AM,28.0,25.0,88,30.26,7.0,Calm,Calm,-,N/A,,Mostly Cloudy,0,2013-03-01 12:53:00
7:11 AM,28.4,24.8,86,30.25,6.0,Calm,Calm,-,N/A,,Mostly Cloudy,0,2013-03-01 13:11:00
9:53 AM,37.0,27.0,67,30.30,10.0,North,13.8,21.9,N/A,,Scattered Clouds,360,2013-03-01 15:53:00
10:31 AM,35.6,26.6,70,30.29,10.0,NNW,13.8,-,N/A,,Mostly Cloudy,340,2013-03-01 16:31:00
10:53 AM,37.0,27.0,67,30.31,10.0,North,12.7,-,N/A,,Overcast,350,2013-03-01 16:53:00
11:53 AM,37.9,27.0,65,30.31,10.0,NW,10.4,-,N/A,,Overcast,320,2013-03-01 17:53:00
12:53 PM,39.0,27.0,62,30.29,10.0,NW,12.7,-,N/A,,Overcast,310,2013-03-01 18:53:00
1:53 PM,39.0,27.0,62,30.28,10.0,NW,13.8,20.7,N/A,,Overcast,310,2013-03-01 19:53:00
2:08 PM,39.2,26.6,61,30.26,10.0,NNW,13.8,21.9,N/A,,Overcast,330,2013-03-01 20:08:00
2:23 PM,39.2,26.6,61,30.26,10.0,NNW,12.7,19.6,N/A,,Overcast,330,2013-03-01 20:23:00
3:14 PM,39.2,24.8,56,30.26,10.0,NW,15.0,26.5,N/A,,Overcast,320,2013-03-01 21:14:00
3:53 PM,39.0,24.1,55,30.28,10.0,NNW,13.8,21.9,N/A,,Overcast,340,2013-03-01 21:53:00
5:53 PM,37.0,25.0,62,30.29,10.0,NW,12.7,-,N/A,,Overcast,320,2013-03-01 23:53:00
6:53 PM,36.0,25.0,64,30.31,10.0,NNW,12.7,19.6,N/A,,Overcast,330,2013-03-02 00:53:00
7:53 PM,34.0,21.9,61,30.33,10.0,North,12.7,-,N/A,,Scattered Clouds,350,2013-03-02 01:53:00
8:53 PM,33.1,21.9,64,30.34,10.0,North,10.4,-,N/A,,Overcast,350,2013-03-02 02:53:00
9:53 PM,28.9,21.9,75,30.36,10.0,NNE,9.2,-,N/A,,Scattered Clouds,20,2013-03-02 03:53:00
10:53 PM,30.0,21.0,69,30.37,10.0,NNE,6.9,-,N/A,,Overcast,20,2013-03-02 04:53:00
11:53 PM,27.0,21.0,78,30.38,10.0,North,3.5,-,N/A,,Scattered Clouds,350,2013-03-02 05:53:00